Time;durP1;ratioP1;P1;durP2;ratioP2;P2;SDS_P1;SDS_P2;PMS_P1;PMS_P2;Temp;Humidity;BMP_temperature;BMP_pressure;BME280_temperature;BME280_humidity;BME280_pressure;Samples;Min_cycle;Max_cycle;Signal;HPM_P1;HPM_P2
2023/10/20 00:00:29;;;;;;;2.90;1.00;;;17.30;99.90;;;;;;4232132;28;20048;-58
2023/10/20 00:02:31;;;;;;;2.00;0.80;;;17.30;99.90;;;;;;4232612;28;20055;-59
2023/10/20 00:04:33;;;;;;;6.10;1.02;;;17.30;99.90;;;;;;4232508;28;20055;-58
2023/10/20 00:06:39;;;;;;;4.20;0.88;;;17.30;99.90;;;;;;4232173;28;20127;-58
2023/10/20 00:08:41;;;;;;;3.25;1.00;;;17.30;99.90;;;;;;4232556;28;20105;-59
2023/10/20 00:10:43;;;;;;;1.95;0.98;;;17.20;99.90;;;;;;4232417;28;20064;-58
2023/10/20 00:12:45;;;;;;;2.75;1.25;;;17.20;99.90;;;;;;4232212;28;20103;-58
2023/10/20 00:14:47;;;;;;;3.42;1.25;;;17.30;99.90;;;;;;4231567;28;20044;-58
2023/10/20 00:16:51;;;;;;;1.88;1.10;;;17.20;99.90;;;;;;4214107;28;20505;-58
2023/10/20 00:18:53;;;;;;;3.67;1.25;;;17.20;99.90;;;;;;4231932;28;20044;-59
2023/10/20 00:20:55;;;;;;;5.82;1.40;;;17.10;99.90;;;;;;4231807;28;20043;-59
2023/10/20 00:22:57;;;;;;;4.95;1.25;;;17.10;99.90;;;;;;4231960;28;20143;-58
2023/10/20 00:25:00;;;;;;;2.55;0.70;;;17.20;99.90;;;;;;4231735;28;20123;-57
2023/10/20 00:27:03;;;;;;;2.15;0.95;;;17.10;99.90;;;;;;4232080;28;20076;-58
2023/10/20 00:29:05;;;;;;;1.58;1.00;;;17.20;99.90;;;;;;4231637;28;20373;-59
2023/10/20 00:31:07;;;;;;;3.15;1.30;;;17.10;99.90;;;;;;4231805;28;20047;-58
2023/10/20 00:33:11;;;;;;;2.22;1.02;;;17.10;99.90;;;;;;4232006;28;20070;-59
2023/10/20 00:35:13;;;;;;;4.10;1.30;;;17.20;99.90;;;;;;4232048;28;20832;-58
2023/10/20 00:37:16;;;;;;;1.60;0.90;;;17.10;99.90;;;;;;4232279;28;20126;-62
2023/10/20 00:39:19;;;;;;;1.98;0.88;;;17.10;99.90;;;;;;4233567;28;20051;-59
2023/10/20 00:41:21;;;;;;;1.35;1.00;;;17.00;99.90;;;;;;4233151;28;20074;-59
2023/10/20 00:43:34;;;;;;;3.40;0.98;;;17.00;99.90;;;;;;4231428;28;20047;-59
2023/10/20 00:45:36;;;;;;;1.92;0.65;;;17.00;99.90;;;;;;4231629;28;20150;-58
2023/10/20 00:47:39;;;;;;;3.85;1.00;;;16.90;99.90;;;;;;4231200;28;20146;-58
2023/10/20 00:49:45;;;;;;;2.95;0.70;;;16.90;99.90;;;;;;4231700;28;20048;-58
2023/10/20 00:51:48;;;;;;;2.47;0.52;;;16.90;99.90;;;;;;4231437;28;20036;-58
2023/10/20 00:53:50;;;;;;;2.05;0.52;;;16.80;99.90;;;;;;4231343;28;20093;-58
2023/10/20 00:55:52;;;;;;;2.80;0.70;;;16.80;99.90;;;;;;4231567;28;20113;-58
2023/10/20 00:57:55;;;;;;;0.68;0.30;;;16.70;99.90;;;;;;4231535;28;20051;-58
2023/10/20 00:59:58;;;;;;;2.50;0.57;;;16.60;99.90;;;;;;4231571;28;20062;-58
2023/10/20 01:02:00;;;;;;;1.63;0.55;;;16.60;99.90;;;;;;4231901;28;20468;-63
2023/10/20 01:04:03;;;;;;;1.50;0.60;;;16.60;99.90;;;;;;4231656;28;20055;-65
2023/10/20 01:06:07;;;;;;;1.08;0.43;;;16.50;99.90;;;;;;4231548;28;20071;-58
2023/10/20 01:08:09;;;;;;;2.38;0.47;;;16.60;99.90;;;;;;4231374;28;20051;-59
2023/10/20 01:10:11;;;;;;;1.50;0.65;;;16.60;99.90;;;;;;4231334;28;20048;-59
2023/10/20 01:12:13;;;;;;;1.50;0.50;;;16.60;99.90;;;;;;4231000;28;20055;-58
2023/10/20 01:14:15;;;;;;;2.00;0.73;;;16.50;99.90;;;;;;4213329;28;20480;-62
2023/10/20 01:16:18;;;;;;;1.42;0.60;;;16.50;99.90;;;;;;4231611;28;20040;-59
2023/10/20 01:18:20;;;;;;;0.95;0.40;;;16.50;99.90;;;;;;4232169;28;20052;-62
2023/10/20 01:20:23;;;;;;;1.95;0.50;;;16.40;99.90;;;;;;4216275;28;20052;-59
2023/10/20 01:22:26;;;;;;;1.15;0.32;;;16.40;99.90;;;;;;4234509;28;20043;-58
2023/10/20 01:24:31;;;;;;;5.00;0.40;;;16.40;99.90;;;;;;4234562;28;20539;-59
2023/10/20 01:26:33;;;;;;;2.28;0.70;;;16.40;99.90;;;;;;4231177;28;20557;-58
2023/10/20 01:28:36;;;;;;;1.83;0.50;;;16.40;99.90;;;;;;4231228;28;20457;-60
2023/10/20 01:30:38;;;;;;;4.57;0.73;;;16.30;99.90;;;;;;4230922;28;20043;-59
2023/10/20 01:32:41;;;;;;;1.10;0.60;;;16.30;99.90;;;;;;4212857;28;20048;-58
2023/10/20 01:34:44;;;;;;;1.75;0.55;;;16.30;99.90;;;;;;4230824;28;20096;-58
2023/10/20 01:36:46;;;;;;;1.23;0.43;;;16.30;99.90;;;;;;4231306;28;20395;-59
2023/10/20 01:38:48;;;;;;;0.73;0.38;;;16.30;99.90;;;;;;4230936;28;20507;-59
2023/10/20 01:40:52;;;;;;;0.77;0.47;;;16.30;99.90;;;;;;4230924;28;20138;-58
2023/10/20 01:42:55;;;;;;;0.98;0.40;;;16.40;99.90;;;;;;4230800;28;20043;-58
2023/10/20 01:44:57;;;;;;;0.80;0.40;;;16.30;99.90;;;;;;4231108;28;20044;-59
2023/10/20 01:46:59;;;;;;;1.90;0.55;;;16.30;99.90;;;;;;4230606;28;20040;-62
2023/10/20 01:49:02;;;;;;;1.80;0.70;;;16.30;99.90;;;;;;4230620;28;20064;-58
2023/10/20 01:51:04;;;;;;;0.60;0.40;;;16.30;99.90;;;;;;4230842;28;20062;-58
2023/10/20 01:53:06;;;;;;;0.43;0.22;;;16.30;99.90;;;;;;4230965;28;20052;-63
2023/10/20 01:55:09;;;;;;;1.40;0.50;;;16.20;99.90;;;;;;4231181;28;20055;-58
2023/10/20 01:57:13;;;;;;;0.60;0.50;;;16.30;99.90;;;;;;4212375;28;20116;-58
2023/10/20 01:59:15;;;;;;;0.85;0.47;;;16.30;99.90;;;;;;4230677;28;20048;-58
2023/10/20 02:01:18;;;;;;;1.35;0.43;;;16.30;99.90;;;;;;4230503;28;20148;-59
2023/10/20 02:03:20;;;;;;;0.88;0.47;;;16.20;99.90;;;;;;4230598;28;20401;-58
2023/10/20 02:05:23;;;;;;;0.85;0.40;;;16.20;99.90;;;;;;4230396;28;20051;-59
2023/10/20 02:07:25;;;;;;;1.95;0.60;;;16.20;99.90;;;;;;4230486;28;20051;-59
2023/10/20 02:09:27;;;;;;;0.95;0.30;;;16.20;99.90;;;;;;4230285;28;20051;-58
2023/10/20 02:11:29;;;;;;;0.75;0.40;;;16.20;99.90;;;;;;4230553;28;20059;-58
2023/10/20 02:13:35;;;;;;;1.17;0.40;;;16.20;99.90;;;;;;4230448;28;20101;-58
2023/10/20 02:15:37;;;;;;;1.63;0.50;;;16.10;99.90;;;;;;4235839;28;20051;-59
2023/10/20 02:17:39;;;;;;;1.40;0.60;;;16.10;99.90;;;;;;4235992;28;20130;-58
2023/10/20 02:19:41;;;;;;;0.43;0.32;;;16.10;99.90;;;;;;4236092;28;20046;-58
2023/10/20 02:21:44;;;;;;;0.82;0.47;;;16.10;99.90;;;;;;4236103;28;20074;-58
2023/10/20 02:23:46;;;;;;;0.73;0.50;;;16.10;99.90;;;;;;4236046;28;20047;-58
2023/10/20 02:25:56;;;;;;;0.63;0.40;;;16.00;99.90;;;;;;4236038;28;20082;-58
2023/10/20 02:27:58;;;;;;;0.60;0.40;;;16.00;99.90;;;;;;4236094;28;20428;-58
2023/10/20 02:30:03;;;;;;;1.45;0.30;;;16.00;99.90;;;;;;4235891;28;20043;-58
2023/10/20 02:32:05;;;;;;;1.00;0.35;;;15.90;99.90;;;;;;4235991;28;20047;-58
2023/10/20 02:34:07;;;;;;;0.40;0.30;;;16.00;99.90;;;;;;4236057;28;20070;-58
2023/10/20 02:36:09;;;;;;;2.92;0.40;;;16.00;99.90;;;;;;4236157;28;20549;-58
2023/10/20 02:38:11;;;;;;;1.35;0.60;;;16.00;99.90;;;;;;4235938;28;20067;-59
2023/10/20 02:40:13;;;;;;;1.70;0.60;;;16.00;99.90;;;;;;4235409;28;20177;-58
2023/10/20 02:42:16;;;;;;;1.40;0.40;;;16.00;99.90;;;;;;4236050;28;20048;-59
2023/10/20 02:44:18;;;;;;;1.15;0.40;;;16.00;99.90;;;;;;4236714;28;20039;-59
2023/10/20 02:46:22;;;;;;;0.60;0.40;;;16.00;99.90;;;;;;4235836;28;20054;-58
2023/10/20 02:48:25;;;;;;;0.73;0.40;;;16.00;99.90;;;;;;4235957;28;20059;-58
2023/10/20 02:50:28;;;;;;;1.15;0.35;;;15.90;99.90;;;;;;4236117;28;20046;-58
2023/10/20 02:52:30;;;;;;;1.35;0.50;;;15.90;99.90;;;;;;4236103;28;20048;-58
2023/10/20 02:54:34;;;;;;;1.80;0.50;;;15.90;99.90;;;;;;4235775;28;20469;-59
2023/10/20 02:56:36;;;;;;;2.38;0.43;;;15.90;99.90;;;;;;4236008;28;20074;-58
2023/10/20 02:58:38;;;;;;;1.30;0.50;;;15.90;99.90;;;;;;4235687;28;20047;-57
2023/10/20 03:00:42;;;;;;;0.40;0.30;;;15.90;99.90;;;;;;4217722;28;20064;-58
2023/10/20 03:02:48;;;;;;;1.77;0.57;;;15.90;99.90;;;;;;4235806;28;20131;-58
2023/10/20 03:04:52;;;;;;;1.25;0.43;;;15.90;99.90;;;;;;4235947;28;20047;-59
2023/10/20 03:06:54;;;;;;;1.10;0.50;;;15.80;99.90;;;;;;4235791;28;20070;-58
2023/10/20 03:08:56;;;;;;;2.83;0.70;;;15.90;99.90;;;;;;4235637;28;20500;-58
2023/10/20 03:10:59;;;;;;;2.28;0.73;;;15.90;99.90;;;;;;4236020;28;20044;-58
2023/10/20 03:13:01;;;;;;;0.50;0.50;;;15.90;99.90;;;;;;4235884;28;20469;-59
2023/10/20 03:15:06;;;;;;;5.13;0.70;;;15.90;99.90;;;;;;4235948;28;20040;-59
2023/10/20 03:17:09;;;;;;;3.20;0.90;;;15.90;99.90;;;;;;4235562;28;20411;-59
2023/10/20 03:19:14;;;;;;;2.55;0.80;;;15.80;99.90;;;;;;4217635;28;20076;-58
2023/10/20 03:21:18;;;;;;;3.20;0.85;;;15.80;99.90;;;;;;4235622;28;20048;-57
2023/10/20 03:23:23;;;;;;;2.88;0.82;;;15.90;99.90;;;;;;4235219;28;20071;-57
2023/10/20 03:25:26;;;;;;;2.22;0.70;;;15.80;99.90;;;;;;4216844;28;20052;-59
2023/10/20 03:27:29;;;;;;;3.17;0.82;;;15.90;99.90;;;;;;4231882;28;20039;-58
2023/10/20 03:29:31;;;;;;;1.08;0.60;;;15.90;99.90;;;;;;4233279;28;20044;-59
2023/10/20 03:31:34;;;;;;;1.48;0.70;;;15.80;99.90;;;;;;4233075;28;20043;-58
2023/10/20 03:33:36;;;;;;;1.73;0.82;;;15.80;99.90;;;;;;4232916;28;20445;-58
2023/10/20 03:35:40;;;;;;;1.85;0.80;;;15.80;99.90;;;;;;4214776;28;20118;-58
2023/10/20 03:37:43;;;;;;;1.65;0.60;;;15.80;99.90;;;;;;4232991;28;20093;-59
2023/10/20 03:39:49;;;;;;;1.50;0.68;;;15.80;99.90;;;;;;4232480;28;20043;-58
2023/10/20 03:41:51;;;;;;;2.40;0.80;;;15.80;99.90;;;;;;4232536;28;20535;-58
2023/10/20 03:43:53;;;;;;;1.55;0.60;;;15.80;99.90;;;;;;4232493;28;20047;-58
2023/10/20 03:45:56;;;;;;;4.18;0.60;;;15.80;99.90;;;;;;4232728;28;20051;-58
2023/10/20 03:48:01;;;;;;;1.73;0.63;;;15.80;99.90;;;;;;4232473;28;20052;-58
2023/10/20 03:50:13;;;;;;;1.52;0.80;;;15.80;99.90;;;;;;4232638;28;20485;-58
2023/10/20 03:52:18;;;;;;;2.50;0.80;;;15.80;99.90;;;;;;4232078;28;20496;-58
2023/10/20 03:54:24;;;;;;;2.65;1.05;;;15.80;99.90;;;;;;4233035;28;20047;-59
2023/10/20 03:56:26;;;;;;;2.17;0.85;;;15.80;99.90;;;;;;4232491;28;20043;-58
2023/10/20 03:58:32;;;;;;;1.42;0.80;;;15.80;99.90;;;;;;4214624;28;20047;-58
2023/10/20 04:00:37;;;;;;;1.73;0.75;;;15.80;99.90;;;;;;4232386;28;20044;-58
2023/10/20 04:02:39;;;;;;;1.13;0.80;;;15.80;99.90;;;;;;4214415;28;20405;-59
2023/10/20 04:04:42;;;;;;;2.05;0.98;;;15.80;99.90;;;;;;4232613;28;20055;-58
2023/10/20 04:06:45;;;;;;;1.30;0.60;;;15.80;99.90;;;;;;4231985;28;20070;-58
2023/10/20 04:08:49;;;;;;;1.40;0.88;;;15.80;99.90;;;;;;4232548;28;20043;-58
2023/10/20 04:10:56;;;;;;;0.95;0.50;;;15.70;99.90;;;;;;4232155;28;20046;-59
2023/10/20 04:12:58;;;;;;;0.55;0.52;;;15.80;99.90;;;;;;4232289;28;20044;-58
2023/10/20 04:15:00;;;;;;;0.90;0.70;;;15.70;99.90;;;;;;4233117;28;20069;-58
2023/10/20 04:17:03;;;;;;;2.13;0.70;;;15.70;99.90;;;;;;4232506;28;20589;-58
2023/10/20 04:19:06;;;;;;;1.17;0.65;;;15.70;99.90;;;;;;4232398;28;20385;-59
2023/10/20 04:21:11;;;;;;;3.58;0.82;;;15.80;99.90;;;;;;4231864;28;20047;-59
2023/10/20 04:23:13;;;;;;;1.60;0.88;;;15.80;99.90;;;;;;4232534;28;20567;-58
2023/10/20 04:25:17;;;;;;;1.17;0.60;;;15.80;99.90;;;;;;4232428;28;20190;-59
2023/10/20 04:27:38;;;;;;;1.10;0.70;;;15.70;99.90;;;;;;4231906;28;20440;-59
2023/10/20 04:41:49;;;;;;;1.88;0.77;;;15.70;99.90;;;;;;4232399;28;20069;-59
2023/10/20 04:44:57;;;;;;;2.78;0.75;;;15.70;99.90;;;;;;4232407;28;20047;-57
2023/10/20 04:58:11;;;;;;;2.20;0.52;;;15.50;99.90;;;;;;4180009;28;20041;-58
2023/10/20 05:02:34;;;;;;;1.25;0.82;;;15.60;99.90;;;;;;4179714;28;20099;-58
2023/10/20 05:04:36;;;;;;;1.90;0.70;;;15.60;99.90;;;;;;4179658;28;20387;-59
2023/10/20 05:06:45;;;;;;;1.73;0.95;;;15.50;99.90;;;;;;4180615;28;20128;-59
2023/10/20 05:08:47;;;;;;;1.88;0.65;;;15.50;99.90;;;;;;4180059;28;20048;-60
2023/10/20 05:10:50;;;;;;;1.77;1.02;;;15.50;99.90;;;;;;4179768;28;20044;-58
2023/10/20 05:12:52;;;;;;;1.17;0.90;;;15.60;99.90;;;;;;4179326;28;20055;-58
2023/10/20 05:14:56;;;;;;;1.40;0.73;;;15.50;99.90;;;;;;4179693;28;20049;-58
2023/10/20 05:16:58;;;;;;;1.40;0.80;;;15.50;99.90;;;;;;4179625;28;20067;-59
2023/10/20 05:19:02;;;;;;;1.48;0.80;;;15.50;99.90;;;;;;4179603;28;20053;-64
2023/10/20 05:21:05;;;;;;;1.55;0.77;;;15.50;99.90;;;;;;4180180;28;20136;-62
2023/10/20 05:23:07;;;;;;;1.50;0.95;;;15.60;99.90;;;;;;4179870;28;20131;-59
2023/10/20 05:25:11;;;;;;;1.25;0.60;;;15.60;99.90;;;;;;4189070;28;20112;-58
2023/10/20 05:27:13;;;;;;;3.13;0.65;;;15.50;99.90;;;;;;4231704;28;20056;-59
2023/10/20 05:29:15;;;;;;;1.27;0.80;;;15.50;99.90;;;;;;4231913;28;20160;-59
2023/10/20 05:31:24;;;;;;;2.70;0.70;;;15.50;99.90;;;;;;4231626;28;20381;-59
2023/10/20 05:33:27;;;;;;;1.77;0.93;;;15.60;99.90;;;;;;4231047;28;20039;-58
2023/10/20 05:35:29;;;;;;;2.08;1.00;;;15.60;99.90;;;;;;4231620;28;20050;-58
2023/10/20 05:37:31;;;;;;;2.60;1.00;;;15.50;99.90;;;;;;4231695;28;20046;-61
2023/10/20 05:39:33;;;;;;;1.25;0.70;;;15.60;99.90;;;;;;4231308;28;20043;-57
2023/10/20 05:41:35;;;;;;;2.80;0.85;;;15.50;99.90;;;;;;4230727;28;20050;-58
2023/10/20 05:43:38;;;;;;;3.88;1.20;;;15.50;99.90;;;;;;4231058;28;20127;-57
2023/10/20 05:45:41;;;;;;;3.33;1.25;;;15.50;99.90;;;;;;4230918;28;20043;-58
2023/10/20 05:47:50;;;;;;;3.10;1.02;;;15.50;99.90;;;;;;4230483;28;20057;-58
2023/10/20 05:49:57;;;;;;;2.33;1.10;;;15.50;99.90;;;;;;4229977;28;20054;-58
2023/10/20 05:52:00;;;;;;;1.48;1.00;;;15.50;99.90;;;;;;4230972;28;20048;-58
2023/10/20 05:54:06;;;;;;;1.65;1.08;;;15.60;99.90;;;;;;4230838;28;20051;-58
2023/10/20 05:56:09;;;;;;;1.73;1.00;;;15.60;99.90;;;;;;4231032;28;20047;-58
2023/10/20 05:58:13;;;;;;;2.38;1.20;;;15.60;99.90;;;;;;4230811;28;20134;-58
2023/10/20 06:00:15;;;;;;;1.65;1.30;;;15.50;99.90;;;;;;4212735;28;20120;-58
2023/10/20 06:02:18;;;;;;;3.15;1.10;;;15.50;99.90;;;;;;4230478;28;20535;-59
2023/10/20 06:04:23;;;;;;;3.22;1.33;;;15.50;99.90;;;;;;4230645;28;20059;-63
2023/10/20 06:06:24;;;;;;;;;;;15.50;99.90;;;;;;4231592;28;20047;-58
2023/10/20 06:08:28;;;;;;;2.28;1.00;;;15.50;99.90;;;;;;4230795;28;19926;-58
2023/10/20 06:10:32;;;;;;;1.88;1.13;;;15.50;99.90;;;;;;4230756;28;20130;-59
2023/10/20 06:12:35;;;;;;;2.95;1.00;;;15.50;99.90;;;;;;4230845;28;20059;-58
2023/10/20 06:14:39;;;;;;;3.15;1.17;;;15.50;99.90;;;;;;4230695;28;20108;-58
2023/10/20 06:16:42;;;;;;;1.20;1.00;;;15.50;99.90;;;;;;4229890;28;20154;-58
2023/10/20 06:18:44;;;;;;;2.30;1.08;;;15.50;99.90;;;;;;4230817;28;20044;-59
2023/10/20 06:20:55;;;;;;;2.50;0.95;;;15.50;99.90;;;;;;4230980;28;20130;-58
2023/10/20 06:22:57;;;;;;;2.35;1.10;;;15.50;99.90;;;;;;4230697;28;20051;-58
2023/10/20 06:24:59;;;;;;;1.65;1.15;;;15.50;99.90;;;;;;4230771;28;20454;-58
2023/10/20 06:27:05;;;;;;;1.98;0.90;;;15.50;99.90;;;;;;4230544;28;20048;-58
2023/10/20 06:31:42;;;;;;;1.55;1.00;;;15.50;99.90;;;;;;4230049;28;20047;-58
2023/10/20 06:33:44;;;;;;;2.83;1.00;;;15.50;99.90;;;;;;4230555;28;20044;-58
2023/10/20 06:35:52;;;;;;;2.03;1.40;;;15.50;99.90;;;;;;4230593;28;20529;-59
2023/10/20 06:38:10;;;;;;;3.58;1.13;;;15.50;99.90;;;;;;4230782;28;20051;-62
2023/10/20 06:40:16;;;;;;;2.38;1.30;;;15.50;99.90;;;;;;4230536;28;20039;-58
2023/10/20 06:42:18;;;;;;;5.50;1.45;;;15.50;99.90;;;;;;4230416;28;20133;-57
2023/10/20 06:44:22;;;;;;;3.33;1.20;;;15.50;99.90;;;;;;4230733;28;20048;-57
2023/10/20 06:46:27;;;;;;;3.28;1.83;;;15.50;99.90;;;;;;4230749;28;20047;-57
2023/10/20 06:48:29;;;;;;;3.95;1.83;;;15.50;99.90;;;;;;4230594;28;20060;-57
2023/10/20 06:50:31;;;;;;;7.85;1.65;;;15.50;99.90;;;;;;4229762;28;20499;-59
2023/10/20 06:52:36;;;;;;;2.10;1.10;;;15.50;99.90;;;;;;4226153;28;20040;-58
2023/10/20 06:54:40;;;;;;;2.72;1.13;;;15.50;99.90;;;;;;4226736;28;21407;-57
2023/10/20 06:56:44;;;;;;;1.48;0.90;;;15.60;99.90;;;;;;4227582;28;20044;-60
2023/10/20 06:58:47;;;;;;;3.53;1.30;;;15.60;99.90;;;;;;4227283;28;20096;-59
2023/10/20 07:00:49;;;;;;;2.05;1.23;;;15.70;99.90;;;;;;4228415;28;20043;-58
2023/10/20 07:02:51;;;;;;;3.50;1.35;;;15.70;99.90;;;;;;4233561;28;20048;-59
2023/10/20 07:04:53;;;;;;;7.03;1.85;;;15.70;99.90;;;;;;4233208;28;20074;-57
2023/10/20 07:06:55;;;;;;;2.08;1.25;;;15.70;99.90;;;;;;4233240;28;20043;-58
2023/10/20 07:08:59;;;;;;;3.20;1.70;;;15.60;99.90;;;;;;4233687;28;20050;-57
2023/10/20 07:11:03;;;;;;;7.13;2.17;;;15.60;99.90;;;;;;4233196;28;20050;-58
2023/10/20 07:13:06;;;;;;;1.90;1.33;;;15.60;99.90;;;;;;4233381;28;20490;-58
2023/10/20 07:15:09;;;;;;;4.43;1.30;;;15.60;99.90;;;;;;4233028;28;20044;-57
2023/10/20 07:17:11;;;;;;;3.00;1.70;;;15.60;99.90;;;;;;4233404;28;20035;-58
2023/10/20 07:19:14;;;;;;;3.40;1.27;;;15.60;99.90;;;;;;4215011;28;20048;-58
2023/10/20 07:21:16;;;;;;;5.40;1.20;;;15.60;99.90;;;;;;4233300;28;20471;-58
2023/10/20 07:23:18;;;;;;;4.78;1.40;;;15.60;99.90;;;;;;4232759;28;20139;-58
2023/10/20 07:25:21;;;;;;;2.75;1.40;;;15.60;99.90;;;;;;4233050;28;20467;-58
2023/10/20 07:27:25;;;;;;;2.80;1.48;;;15.60;99.90;;;;;;4232996;28;20471;-58
2023/10/20 07:29:27;;;;;;;3.47;1.30;;;15.60;99.90;;;;;;4232805;28;20052;-58
2023/10/20 07:31:29;;;;;;;3.17;1.50;;;15.60;99.90;;;;;;4233177;28;20063;-58
2023/10/20 07:33:31;;;;;;;4.78;1.50;;;15.60;99.90;;;;;;4233030;28;20492;-58
2023/10/20 07:35:37;;;;;;;3.72;1.45;;;15.60;99.90;;;;;;4232861;28;20051;-58
2023/10/20 07:37:39;;;;;;;6.68;1.25;;;15.60;99.90;;;;;;4232840;28;20378;-58
2023/10/20 07:39:41;;;;;;;2.25;1.20;;;15.60;99.90;;;;;;4232854;28;20400;-58
2023/10/20 07:41:44;;;;;;;3.72;1.23;;;15.60;99.90;;;;;;4232941;28;20070;-58
2023/10/20 07:43:48;;;;;;;4.55;1.50;;;15.60;99.90;;;;;;4232457;28;20051;-58
2023/10/20 07:45:50;;;;;;;4.47;1.80;;;15.60;99.90;;;;;;4232734;28;20538;-58
2023/10/20 07:47:53;;;;;;;2.45;1.38;;;15.60;99.90;;;;;;4232788;28;20452;-58
2023/10/20 07:49:57;;;;;;;5.18;1.58;;;15.70;99.90;;;;;;4232932;28;20575;-58
2023/10/20 07:52:01;;;;;;;2.53;1.10;;;15.60;99.90;;;;;;4232669;28;20075;-58
2023/10/20 07:54:04;;;;;;;3.17;1.40;;;15.60;99.90;;;;;;4232653;28;20479;-58
2023/10/20 07:56:06;;;;;;;1.50;1.27;;;15.60;99.90;;;;;;4232872;28;20443;-58
2023/10/20 07:58:09;;;;;;;4.13;1.20;;;15.60;99.90;;;;;;4232355;28;20585;-58
2023/10/20 08:00:13;;;;;;;3.20;1.45;;;15.60;99.90;;;;;;4232458;28;20051;-58
2023/10/20 08:02:17;;;;;;;3.97;1.23;;;15.60;99.90;;;;;;4232551;28;20054;-58
2023/10/20 08:04:19;;;;;;;2.67;1.13;;;15.60;99.90;;;;;;4232519;28;20058;-58
2023/10/20 08:06:22;;;;;;;4.00;1.25;;;15.70;99.90;;;;;;4232742;28;20047;-58
2023/10/20 08:08:25;;;;;;;3.95;1.67;;;15.70;99.90;;;;;;4232869;28;20044;-58
2023/10/20 08:10:27;;;;;;;5.90;1.35;;;15.70;99.90;;;;;;4232666;28;20040;-58
2023/10/20 08:12:32;;;;;;;4.45;1.38;;;15.80;99.90;;;;;;4232455;28;20484;-58
2023/10/20 08:14:40;;;;;;;8.50;1.85;;;15.70;99.90;;;;;;4216341;28;20043;-58
2023/10/20 08:16:43;;;;;;;4.97;1.65;;;15.80;99.90;;;;;;4233391;28;20409;-59
2023/10/20 08:18:46;;;;;;;8.98;2.00;;;15.80;99.90;;;;;;4232830;28;20047;-58
2023/10/20 08:20:48;;;;;;;5.05;1.73;;;15.90;99.90;;;;;;4232903;28;20484;-58
2023/10/20 08:22:51;;;;;;;3.17;1.67;;;15.90;99.90;;;;;;4232065;28;20074;-61
2023/10/20 08:24:54;;;;;;;4.70;1.98;;;15.90;99.90;;;;;;4232160;28;20074;-58
2023/10/20 08:26:56;;;;;;;7.40;2.20;;;16.00;99.90;;;;;;4232280;28;20039;-58
2023/10/20 08:29:12;;;;;;;8.07;1.95;;;16.00;99.90;;;;;;4232830;28;20484;-59
2023/10/20 08:31:18;;;;;;;5.05;1.30;;;16.00;99.90;;;;;;4231991;28;20044;-58
2023/10/20 08:33:22;;;;;;;7.75;1.50;;;16.00;99.90;;;;;;4227406;28;20048;-58
2023/10/20 08:35:24;;;;;;;4.72;1.50;;;16.00;99.90;;;;;;4215515;28;20500;-57
2023/10/20 08:37:26;;;;;;;4.70;1.55;;;16.00;99.90;;;;;;4218533;28;20059;-59
2023/10/20 08:39:28;;;;;;;4.28;1.60;;;16.00;99.90;;;;;;4229312;28;20443;-57
2023/10/20 08:41:30;;;;;;;4.63;1.20;;;16.00;99.90;;;;;;4224364;28;20112;-64
2023/10/20 08:43:33;;;;;;;4.75;1.15;;;16.00;99.90;;;;;;4206022;28;20070;-60
2023/10/20 08:45:35;;;;;;;4.68;1.40;;;16.00;99.90;;;;;;4225688;28;20074;-62
2023/10/20 08:47:40;;;;;;;3.75;1.50;;;16.00;99.90;;;;;;4226718;28;20048;-57
2023/10/20 08:49:44;;;;;;;8.82;1.95;;;16.00;99.90;;;;;;4231597;28;20043;-57
2023/10/20 08:51:47;;;;;;;3.90;1.63;;;16.10;99.90;;;;;;4214411;28;20498;-58
2023/10/20 08:53:50;;;;;;;6.68;2.13;;;16.10;99.90;;;;;;4214511;28;20050;-58
2023/10/20 08:55:52;;;;;;;8.07;1.85;;;16.10;99.90;;;;;;4213819;28;20056;-63
2023/10/20 08:57:55;;;;;;;9.52;2.08;;;16.10;99.90;;;;;;4231545;28;20481;-58
2023/10/20 08:59:57;;;;;;;12.68;1.73;;;16.10;99.90;;;;;;4231926;28;20480;-58
2023/10/20 09:02:00;;;;;;;5.35;1.70;;;16.20;99.90;;;;;;4231636;28;20043;-58
2023/10/20 09:04:04;;;;;;;5.50;1.48;;;16.20;99.90;;;;;;4226716;28;20039;-57
2023/10/20 09:06:11;;;;;;;4.00;1.40;;;16.30;99.90;;;;;;4231546;28;20058;-57
2023/10/20 09:08:13;;;;;;;3.88;1.30;;;16.30;99.90;;;;;;4231388;28;20101;-58
2023/10/20 09:10:15;;;;;;;5.07;1.90;;;16.40;99.90;;;;;;4231021;28;20051;-58
2023/10/20 09:12:17;;;;;;;3.60;1.83;;;16.30;99.90;;;;;;4231464;28;20472;-58
2023/10/20 09:14:19;;;;;;;5.18;1.50;;;16.40;99.90;;;;;;4231235;28;20051;-58
2023/10/20 09:16:23;;;;;;;5.30;1.45;;;16.50;99.90;;;;;;4227015;28;20408;-58
2023/10/20 09:18:25;;;;;;;4.32;1.92;;;16.50;99.90;;;;;;4222606;28;20497;-58
2023/10/20 09:20:28;;;;;;;10.65;2.03;;;16.50;99.90;;;;;;4222144;28;20052;-60
2023/10/20 09:22:32;;;;;;;11.55;2.10;;;16.40;99.90;;;;;;4221957;28;20043;-58
2023/10/20 09:24:34;;;;;;;7.93;2.17;;;16.40;99.90;;;;;;4220420;28;20485;-57
2023/10/20 09:26:39;;;;;;;5.90;1.75;;;16.30;99.90;;;;;;4221979;28;20044;-59
2023/10/20 09:28:46;;;;;;;12.40;2.30;;;16.40;99.90;;;;;;4219119;28;20048;-58
2023/10/20 09:30:49;;;;;;;13.18;2.22;;;16.40;99.90;;;;;;4221560;28;20048;-58
2023/10/20 09:32:52;;;;;;;6.50;2.30;;;16.40;99.90;;;;;;4221697;28;20400;-59
2023/10/20 09:34:56;;;;;;;11.38;2.42;;;16.40;99.90;;;;;;4221930;28;20094;-58
2023/10/20 09:37:01;;;;;;;9.65;2.40;;;16.50;99.90;;;;;;4222034;28;20048;-59
2023/10/20 09:39:12;;;;;;;8.13;2.33;;;16.60;99.90;;;;;;4221376;28;20245;-58
2023/10/20 09:41:21;;;;;;;9.20;3.08;;;16.70;99.90;;;;;;4229631;28;20070;-59
2023/10/20 09:43:30;;;;;;;11.02;2.63;;;16.80;99.90;;;;;;4212785;28;20142;-57
2023/10/20 09:45:33;;;;;;;8.80;2.75;;;16.90;99.90;;;;;;4230760;28;20039;-58
2023/10/20 09:47:36;;;;;;;9.40;2.85;;;17.00;99.90;;;;;;4230789;28;20048;-59
2023/10/20 09:49:40;;;;;;;8.23;2.60;;;17.00;99.90;;;;;;4230688;28;20054;-58
2023/10/20 09:51:50;;;;;;;7.38;2.53;;;17.00;99.90;;;;;;4230837;28;20454;-58
2023/10/20 09:53:56;;;;;;;11.40;2.88;;;17.00;99.90;;;;;;4230278;28;20058;-58
2023/10/20 09:56:00;;;;;;;12.52;2.70;;;17.00;99.90;;;;;;4228514;28;20044;-58
2023/10/20 09:58:02;;;;;;;8.05;2.53;;;17.10;99.90;;;;;;4220449;28;20044;-58
2023/10/20 10:00:09;;;;;;;15.98;2.85;;;17.10;99.90;;;;;;4213000;28;20378;-58
2023/10/20 10:02:11;;;;;;;12.43;3.08;;;17.20;99.90;;;;;;4212883;28;20097;-59
2023/10/20 10:04:14;;;;;;;13.48;4.00;;;17.30;99.90;;;;;;4220754;28;20134;-58
2023/10/20 10:06:16;;;;;;;16.25;4.35;;;17.30;99.90;;;;;;4230690;28;20043;-58
2023/10/20 10:08:20;;;;;;;10.38;3.15;;;17.30;99.90;;;;;;4229994;28;20051;-58
2023/10/20 10:10:22;;;;;;;12.82;3.42;;;17.40;99.90;;;;;;4230635;28;20070;-58
2023/10/20 10:12:27;;;;;;;15.27;3.45;;;17.30;99.90;;;;;;4230152;28;20514;-58
2023/10/20 10:14:29;;;;;;;10.88;3.17;;;17.40;99.90;;;;;;4230131;28;20051;-58
2023/10/20 10:16:50;;;;;;;10.00;2.47;;;17.40;99.90;;;;;;4230400;28;20048;-58
2023/10/20 10:18:54;;;;;;;15.38;3.50;;;17.50;99.90;;;;;;4230356;28;20048;-58
2023/10/20 10:21:04;;;;;;;8.57;2.60;;;17.60;99.90;;;;;;4230513;28;20051;-59
2023/10/20 10:23:09;;;;;;;12.25;3.00;;;17.60;99.90;;;;;;4230396;28;20074;-58
2023/10/20 10:25:11;;;;;;;12.60;2.95;;;17.70;99.90;;;;;;4230476;28;20723;-56
2023/10/20 10:27:16;;;;;;;11.20;3.00;;;17.60;99.90;;;;;;4230992;28;20052;-56
2023/10/20 10:29:41;;;;;;;14.23;5.03;;;17.70;99.90;;;;;;4230772;28;20052;-57
2023/10/20 10:31:44;;;;;;;15.35;5.25;;;17.70;99.90;;;;;;4230851;28;20633;-56
2023/10/20 10:34:07;;;;;;;9.32;3.08;;;17.70;99.90;;;;;;4230522;28;20051;-56
2023/10/20 10:36:10;;;;;;;14.23;3.85;;;17.70;99.90;;;;;;4232265;28;20165;-56
2023/10/20 10:38:23;;;;;;;14.02;3.13;;;17.60;99.90;;;;;;4233433;28;20044;-56
2023/10/20 10:40:25;;;;;;;10.45;3.17;;;17.60;99.90;;;;;;4233732;28;20051;-56
2023/10/20 10:42:28;;;;;;;11.35;3.35;;;17.50;99.90;;;;;;4215705;28;20501;-56
2023/10/20 10:44:36;;;;;;;16.02;5.40;;;17.40;99.90;;;;;;4233887;28;20139;-57
2023/10/20 10:46:42;;;;;;;9.38;3.60;;;17.30;99.90;;;;;;4233560;28;20058;-56
2023/10/20 10:48:45;;;;;;;16.20;4.57;;;17.30;99.90;;;;;;4233592;28;20051;-58
2023/10/20 10:50:47;;;;;;;14.50;4.50;;;17.30;99.90;;;;;;4220823;28;20039;-56
2023/10/20 10:52:50;;;;;;;9.70;3.42;;;17.40;99.90;;;;;;4216451;28;20048;-56
2023/10/20 10:54:54;;;;;;;14.45;5.80;;;17.40;99.90;;;;;;4216464;28;20083;-60
2023/10/20 10:56:57;;;;;;;13.63;4.35;;;17.40;99.90;;;;;;4219805;28;20052;-57
2023/10/20 10:58:59;;;;;;;11.75;3.88;;;17.40;99.90;;;;;;4228436;28;20044;-56
2023/10/20 11:01:03;;;;;;;10.45;2.95;;;17.40;99.90;;;;;;4233465;28;20071;-56
2023/10/20 11:03:07;;;;;;;8.68;3.35;;;17.50;99.90;;;;;;4220447;28;20070;-56
2023/10/20 11:05:09;;;;;;;7.85;2.75;;;17.40;99.90;;;;;;4216371;28;20416;-56
2023/10/20 11:07:13;;;;;;;13.38;3.95;;;17.30;99.90;;;;;;4214749;28;20105;-57
2023/10/20 11:09:19;;;;;;;12.60;3.40;;;17.30;99.90;;;;;;4216422;28;20055;-56
2023/10/20 11:11:25;;;;;;;18.92;4.53;;;17.50;99.90;;;;;;4216161;28;20405;-56